createdAt,value
2023-11-03T00:01:14.013Z,97430.61
2023-11-03T00:03:43.322Z,97428.86
2023-11-03T00:06:10.688Z,97421.83
2023-11-03T00:08:37.851Z,97416.63
2023-11-03T00:11:06.217Z,97410.80
2023-11-03T00:13:35.880Z,97403.98
2023-11-03T00:16:03.578Z,97402.80
2023-11-03T00:18:31.020Z,97398.38
2023-11-03T00:21:00.249Z,97404.02
2023-11-03T00:23:27.139Z,97404.59
2023-11-03T00:25:53.920Z,97413.84
2023-11-03T00:28:22.446Z,97401.38
2023-11-03T00:30:48.948Z,97397.83
2023-11-03T00:33:18.690Z,97391.91
2023-11-03T00:35:45.301Z,97395.88
2023-11-03T00:38:14.352Z,97386.52
2023-11-03T00:40:43.977Z,97382.09
2023-11-03T00:43:10.649Z,97384.96
2023-11-03T00:45:37.288Z,97370.23
2023-11-03T00:48:04.189Z,97367.58
2023-11-03T00:50:30.846Z,97363.58
2023-11-03T00:52:57.416Z,97356.48
2023-11-03T00:55:23.944Z,97360.17
2023-11-03T00:57:50.787Z,97351.09
2023-11-03T01:00:18.679Z,97346.75
2023-11-03T01:02:46.947Z,97354.55
2023-11-03T01:05:16.959Z,97356.03
2023-11-03T01:07:44.129Z,97359.57
2023-11-03T01:10:16.315Z,97353.02
2023-11-03T01:12:44.914Z,97347.52
2023-11-03T01:15:13.508Z,97348.94
2023-11-03T01:17:40.914Z,97354.25
2023-11-03T01:20:14.209Z,97352.16
2023-11-03T01:22:41.329Z,97357.64
2023-11-03T01:25:08.699Z,97354.41
2023-11-03T01:27:35.357Z,97355.29
2023-11-03T01:30:01.916Z,97356.38
2023-11-03T01:32:31.498Z,97354.89
2023-11-03T01:34:58.446Z,97356.42
2023-11-03T01:37:27.582Z,97357.98
2023-11-03T01:39:55.249Z,97367.22
2023-11-03T01:42:21.791Z,97371.31
2023-11-03T01:44:48.290Z,97372.19
2023-11-03T01:47:16.462Z,97377.48
2023-11-03T01:49:43.410Z,97373.03
2023-11-03T01:52:11.166Z,97374.71
2023-11-03T01:54:39.472Z,97374.71
2023-11-03T01:57:06.273Z,97371.96
2023-11-03T01:59:35.108Z,97374.52
2023-11-03T02:02:05.478Z,97370.22
2023-11-03T02:04:32.040Z,97371.06
2023-11-03T02:06:59.076Z,97372.76
2023-11-03T02:09:25.847Z,97376.16
2023-11-03T02:11:52.569Z,97371.75
2023-11-03T02:14:19.338Z,97391.54
2023-11-03T02:16:48.624Z,97392.02
2023-11-03T02:19:16.829Z,97393.38
2023-11-03T02:21:45.171Z,97399.29
2023-11-03T02:24:11.823Z,97397.00
2023-11-03T02:26:38.421Z,97392.84
2023-11-03T02:29:06.867Z,97390.22
2023-11-03T02:31:34.365Z,97377.00
2023-11-03T02:34:01.342Z,97372.48
2023-11-03T02:36:27.985Z,97367.47
2023-11-03T02:38:55.720Z,97369.81
2023-11-03T02:41:22.525Z,97368.58
2023-11-03T02:43:51.322Z,97370.62
2023-11-03T02:46:18.189Z,97375.41
2023-11-03T02:48:45.461Z,97374.51
2023-11-03T02:51:12.566Z,97377.70
2023-11-03T02:53:39.116Z,97382.91
2023-11-03T02:56:06.347Z,97377.02
2023-11-03T02:58:38.715Z,97377.64
2023-11-03T03:01:11.348Z,97373.94
2023-11-03T03:03:38.046Z,97375.35
2023-11-03T03:06:07.201Z,97373.54
2023-11-03T03:08:33.979Z,97367.98
2023-11-03T03:11:04.195Z,97373.30
2023-11-03T03:13:31.476Z,97374.36
2023-11-03T03:15:59.205Z,97381.77
2023-11-03T03:18:26.516Z,97384.41
2023-11-03T03:20:53.109Z,97376.66
2023-11-03T03:23:20.055Z,97381.56
2023-11-03T03:25:46.575Z,97383.17
2023-11-03T03:28:13.503Z,97382.92
2023-11-03T03:30:40.440Z,97384.55
2023-11-03T03:33:07.362Z,97388.63
2023-11-03T03:35:34.022Z,97396.13
2023-11-03T03:38:00.589Z,97398.13
2023-11-03T03:40:27.244Z,97403.39
2023-11-03T03:42:53.968Z,97398.40
2023-11-03T03:45:22.843Z,97397.17
2023-11-03T03:47:49.558Z,97396.95
2023-11-03T03:50:16.196Z,97396.89
2023-11-03T03:52:42.745Z,97400.43
2023-11-03T03:55:09.384Z,97404.37
2023-11-03T03:57:36.243Z,97414.39
2023-11-03T04:00:02.905Z,97409.23
2023-11-03T04:02:29.560Z,97397.92
2023-11-03T04:04:56.680Z,97401.50
2023-11-03T04:07:23.278Z,97402.85
2023-11-03T04:09:50.879Z,97400.77
2023-11-03T04:12:17.659Z,97408.81
2023-11-03T04:14:44.132Z,97409.66
2023-11-03T04:17:10.688Z,97424.05
2023-11-03T04:19:37.632Z,97418.41
2023-11-03T04:22:05.260Z,97425.13
2023-11-03T04:24:31.781Z,97416.42
2023-11-03T04:26:58.724Z,97428.59
2023-11-03T04:29:25.515Z,97426.10
2023-11-03T04:31:53.412Z,97423.57
2023-11-03T04:34:20.225Z,97430.27
2023-11-03T04:36:46.977Z,97433.50
2023-11-03T04:39:13.526Z,97438.65
2023-11-03T04:41:40.106Z,97433.73
2023-11-03T04:44:07.848Z,97433.38
2023-11-03T04:46:34.793Z,97424.20
2023-11-03T04:49:01.900Z,97410.20
2023-11-03T04:51:29.000Z,97407.48
2023-11-03T04:53:56.402Z,97397.91
2023-11-03T04:56:23.121Z,97397.73
2023-11-03T04:58:50.419Z,97394.84
2023-11-03T05:01:17.822Z,97393.65
2023-11-03T05:03:45.061Z,97396.05
2023-11-03T05:06:12.507Z,97397.10
2023-11-03T05:08:39.641Z,97402.05
2023-11-03T05:11:06.318Z,97398.63
2023-11-03T05:13:32.955Z,97396.90
2023-11-03T05:16:02.409Z,97394.84
2023-11-03T05:18:29.296Z,97393.64
2023-11-03T05:20:58.410Z,97392.59
2023-11-03T05:23:24.942Z,97393.42
2023-11-03T05:25:51.824Z,97390.33
2023-11-03T05:28:18.373Z,97389.94
2023-11-03T05:30:45.326Z,97390.45
2023-11-03T05:33:14.733Z,97389.90
2023-11-03T05:35:42.855Z,97393.17
2023-11-03T05:38:09.699Z,97392.51
2023-11-03T05:40:36.181Z,97399.56
2023-11-03T05:43:04.109Z,97412.44
2023-11-03T05:45:30.894Z,97423.60
2023-11-03T05:48:00.417Z,97434.99
2023-11-03T05:50:28.868Z,97435.75
2023-11-03T05:52:55.508Z,97432.59
2023-11-03T05:55:22.178Z,97428.87
2023-11-03T05:57:51.230Z,97431.64
2023-11-03T06:00:18.142Z,97436.85
2023-11-03T06:02:45.006Z,97435.65
2023-11-03T06:05:13.449Z,97441.83
2023-11-03T06:07:42.451Z,97445.05
2023-11-03T06:10:10.490Z,97451.91
2023-11-03T06:12:37.351Z,97458.42
2023-11-03T06:15:05.252Z,97466.33
2023-11-03T06:17:31.826Z,97476.64
2023-11-03T06:19:58.528Z,97486.79
2023-11-03T06:22:25.069Z,97486.84
2023-11-03T06:24:51.757Z,97498.23
2023-11-03T06:27:18.270Z,97493.98
2023-11-03T06:29:44.939Z,97489.23
2023-11-03T06:32:11.480Z,97486.34
2023-11-03T06:34:38.124Z,97483.55
2023-11-03T06:37:05.076Z,97479.77
2023-11-03T06:39:32.040Z,97481.13
2023-11-03T06:41:58.604Z,97488.13
2023-11-03T06:44:28.011Z,97486.20
2023-11-03T06:46:54.565Z,97482.22
2023-11-03T06:49:21.136Z,97487.48
2023-11-03T06:51:49.880Z,97499.08
2023-11-03T06:54:16.909Z,97507.64
2023-11-03T06:56:43.968Z,97510.48
2023-11-03T06:59:11.443Z,97517.63
2023-11-03T07:01:38.020Z,97517.55
2023-11-03T07:04:07.139Z,97522.30
2023-11-03T07:06:35.303Z,97526.89
2023-11-03T07:09:02.101Z,97525.77
2023-11-03T07:11:35.640Z,97533.04
2023-11-03T07:14:05.385Z,97530.41
2023-11-03T07:16:34.326Z,97536.14
2023-11-03T07:19:01.422Z,97533.36
2023-11-03T07:21:28.040Z,97532.45
2023-11-03T07:23:54.612Z,97529.84
2023-11-03T07:26:23.653Z,97536.59
2023-11-03T07:28:50.132Z,97535.66
2023-11-03T07:31:17.438Z,97544.19
2023-11-03T07:33:44.370Z,97540.00
2023-11-03T07:36:11.908Z,97552.25
2023-11-03T07:38:39.087Z,97549.95
2023-11-03T07:41:09.747Z,97550.41
2023-11-03T07:43:40.240Z,97550.42
2023-11-03T07:46:07.367Z,97558.77
2023-11-03T07:48:34.127Z,97569.55
2023-11-03T07:51:01.205Z,97570.23
2023-11-03T07:53:28.706Z,97574.88
2023-11-03T07:55:56.560Z,97585.25
2023-11-03T07:58:23.776Z,97589.00
2023-11-03T08:00:51.242Z,97584.52
2023-11-03T08:03:19.292Z,97590.47
2023-11-03T08:05:46.275Z,97600.73
2023-11-03T08:08:17.160Z,97605.05
2023-11-03T08:10:43.965Z,97616.53
2023-11-03T08:13:11.681Z,97618.73
2023-11-03T08:15:39.137Z,97626.92
2023-11-03T08:18:09.622Z,97627.38
2023-11-03T08:20:36.274Z,97629.98
2023-11-03T08:23:02.840Z,97636.71
2023-11-03T08:25:33.436Z,97631.35
2023-11-03T08:28:00.933Z,97636.02
2023-11-03T08:30:28.285Z,97635.24
2023-11-03T08:32:58.225Z,97639.45
2023-11-03T08:35:26.277Z,97642.27
2023-11-03T08:37:56.570Z,97642.20
2023-11-03T08:40:23.716Z,97643.52
2023-11-03T08:42:53.320Z,97634.66
2023-11-03T08:45:25.447Z,97632.23
2023-11-03T08:47:52.947Z,97632.46
2023-11-03T08:50:19.755Z,97634.48
2023-11-03T08:52:48.514Z,97639.84
2023-11-03T08:55:16.227Z,97643.44
2023-11-03T08:57:43.430Z,97641.35
2023-11-03T09:00:17.257Z,97645.30
2023-11-03T09:02:49.724Z,97649.36
2023-11-03T09:05:16.542Z,97645.52
2023-11-03T09:07:45.145Z,97648.92
2023-11-03T09:10:14.952Z,97645.19
2023-11-03T09:12:42.179Z,97642.98
2023-11-03T09:15:09.781Z,97642.07
2023-11-03T09:17:37.420Z,97650.63
2023-11-03T09:20:08.583Z,97652.05
2023-11-03T09:22:37.196Z,97655.96
2023-11-03T09:25:07.524Z,97653.59
2023-11-03T09:27:35.142Z,97660.09
2023-11-03T09:30:06.369Z,97653.59
2023-11-03T09:32:33.570Z,97653.63
2023-11-03T09:35:01.317Z,97650.16
2023-11-03T09:37:28.102Z,97658.25
2023-11-03T09:39:55.732Z,97646.44
2023-11-03T09:42:25.759Z,97650.41
2023-11-03T09:44:52.782Z,97649.56
2023-11-03T09:47:19.343Z,97652.88
2023-11-03T09:49:47.298Z,97658.96
2023-11-03T09:52:15.561Z,97667.59
2023-11-03T09:54:43.300Z,97663.55
2023-11-03T09:57:12.609Z,97660.81
2023-11-03T09:59:41.074Z,97663.28
2023-11-03T10:02:21.923Z,97673.12
2023-11-03T10:04:48.611Z,97672.55
2023-11-03T10:07:17.872Z,97670.44
2023-11-03T10:09:44.963Z,97662.77
2023-11-03T10:12:13.639Z,97662.17
2023-11-03T10:14:40.601Z,97669.61
2023-11-03T10:17:09.170Z,97666.83
2023-11-03T10:19:36.517Z,97667.32
2023-11-03T10:22:10.405Z,97658.80
2023-11-03T10:24:40.115Z,97655.52
2023-11-03T10:27:07.767Z,97657.55
2023-11-03T10:29:34.436Z,97664.87
2023-11-03T10:32:02.236Z,97668.38
2023-11-03T10:34:29.306Z,97663.26
2023-11-03T10:36:58.550Z,97661.55
2023-11-03T10:39:29.416Z,97660.66
2023-11-03T10:42:03.742Z,97662.02
2023-11-03T10:44:32.979Z,97659.71
2023-11-03T10:47:06.191Z,97661.39
2023-11-03T10:49:39.085Z,97660.34
2023-11-03T10:52:12.428Z,97663.79
2023-11-03T10:55:03.157Z,97665.40
2023-11-03T10:57:39.787Z,97665.45
2023-11-03T11:00:27.766Z,97670.02
2023-11-03T11:03:27.260Z,97664.25
2023-11-03T11:06:09.358Z,97661.23
2023-11-03T11:08:40.169Z,97659.10
2023-11-03T11:11:08.200Z,97654.11
2023-11-03T11:13:34.837Z,97652.23
2023-11-03T11:16:01.563Z,97655.40
2023-11-03T11:18:32.319Z,97659.07
2023-11-03T11:21:08.058Z,97654.36
2023-11-03T11:23:37.249Z,97653.18
2023-11-03T11:26:04.566Z,97651.96
2023-11-03T11:28:42.347Z,97654.32
2023-11-03T11:31:26.414Z,97656.77
2023-11-03T11:34:06.628Z,97653.84
2023-11-03T11:36:34.832Z,97660.44
2023-11-03T11:39:07.633Z,97657.44
2023-11-03T11:41:36.433Z,97654.98
2023-11-03T11:44:03.944Z,97652.53
2023-11-03T11:46:32.429Z,97654.55
2023-11-03T11:49:03.667Z,97659.48
2023-11-03T11:51:32.811Z,97656.66
2023-11-03T11:54:01.845Z,97658.42
2023-11-03T11:56:29.637Z,97655.30
2023-11-03T11:58:56.924Z,97657.77
2023-11-03T12:01:23.832Z,97659.77
2023-11-03T12:03:53.484Z,97655.84
2023-11-03T12:06:21.142Z,97653.35
2023-11-03T12:08:47.685Z,97657.34
2023-11-03T12:11:16.486Z,97663.35
2023-11-03T12:13:44.116Z,97662.11
2023-11-03T12:16:10.862Z,97664.20
2023-11-03T12:18:40.266Z,97664.21
2023-11-03T12:21:08.408Z,97665.38
2023-11-03T12:23:38.244Z,97667.61
2023-11-03T12:26:05.129Z,97663.55
2023-11-03T12:28:32.584Z,97660.91
2023-11-03T12:31:00.489Z,97667.63
2023-11-03T12:33:27.922Z,97660.09
2023-11-03T12:35:58.386Z,97657.52
2023-11-03T12:38:24.943Z,97655.45
2023-11-03T12:40:51.792Z,97658.54
2023-11-03T12:43:20.166Z,97658.68
2023-11-03T12:46:05.501Z,97658.96
2023-11-03T12:48:32.978Z,97663.27
2023-11-03T12:51:00.914Z,97665.11
2023-11-03T12:53:28.274Z,97666.33
2023-11-03T12:56:05.347Z,97664.09
2023-11-03T12:58:32.103Z,97659.39
2023-11-03T13:01:02.632Z,97659.61
2023-11-03T13:03:31.616Z,97667.42
2023-11-03T13:06:01.024Z,97666.09
2023-11-03T13:08:27.971Z,97662.12
2023-11-03T13:10:55.520Z,97658.00
2023-11-03T13:13:22.640Z,97667.36
2023-11-03T13:15:49.315Z,97670.75
2023-11-03T13:18:19.180Z,97670.78
2023-11-03T13:20:50.107Z,97676.48
2023-11-03T13:23:17.858Z,97680.70
2023-11-03T13:25:44.574Z,97677.96
2023-11-03T13:28:11.380Z,97674.54
2023-11-03T13:30:38.296Z,97679.04
2023-11-03T13:33:04.857Z,97674.92
2023-11-03T13:35:32.920Z,97677.73
2023-11-03T13:37:59.675Z,97684.85
2023-11-03T13:40:29.619Z,97682.17
2023-11-03T13:42:56.932Z,97693.48
2023-11-03T13:45:23.525Z,97694.52
2023-11-03T13:47:50.364Z,97698.40
2023-11-03T13:50:21.787Z,97701.02
2023-11-03T13:52:50.796Z,97705.07
2023-11-03T13:55:21.866Z,97703.80
2023-11-03T13:57:51.156Z,97707.11
2023-11-03T14:00:17.956Z,97713.77
2023-11-03T14:02:45.358Z,97715.77
2023-11-03T14:05:13.041Z,97716.88
2023-11-03T14:07:45.216Z,97717.54
2023-11-03T14:10:15.642Z,97726.22
2023-11-03T14:12:45.191Z,97725.35
2023-11-03T14:15:12.547Z,97722.23
2023-11-03T14:17:43.559Z,97723.02
2023-11-03T14:20:11.384Z,97725.95
2023-11-03T14:22:38.404Z,97719.73
2023-11-03T14:25:05.452Z,97725.70
2023-11-03T14:27:33.068Z,97727.77
2023-11-03T14:30:00.421Z,97725.81
2023-11-03T14:32:28.345Z,97733.49
2023-11-03T14:34:55.092Z,97738.83
2023-11-03T14:37:25.510Z,97737.27
2023-11-03T14:39:52.261Z,97743.06
2023-11-03T14:42:19.350Z,97739.48
2023-11-03T14:44:47.213Z,97745.90
2023-11-03T14:47:14.205Z,97751.98
2023-11-03T14:49:42.322Z,97760.59
2023-11-03T14:52:10.550Z,97767.42
2023-11-03T14:54:39.541Z,97771.56
2023-11-03T14:57:06.254Z,97775.73
2023-11-03T14:59:35.171Z,97776.55
2023-11-03T15:02:04.567Z,97771.30
2023-11-03T15:04:31.842Z,97771.42
2023-11-03T15:06:58.663Z,97777.42
2023-11-03T15:09:27.120Z,97779.20
2023-11-03T15:11:54.686Z,97781.33
2023-11-03T15:14:21.153Z,97782.63
2023-11-03T15:16:48.452Z,97785.63
2023-11-03T15:19:15.519Z,97785.52
2023-11-03T15:21:42.159Z,97782.70
2023-11-03T15:24:10.216Z,97789.11
2023-11-03T15:26:38.222Z,97792.00
2023-11-03T15:29:05.949Z,97802.38
2023-11-03T15:31:32.859Z,97809.06
2023-11-03T15:33:59.645Z,97809.36
2023-11-03T15:36:26.779Z,97813.80
2023-11-03T15:38:58.044Z,97811.09
2023-11-03T15:41:29.116Z,97811.75
2023-11-03T15:43:57.909Z,97813.13
2023-11-03T15:46:24.851Z,97813.92
2023-11-03T15:48:53.065Z,97815.59
2023-11-03T15:51:24.431Z,97818.13
2023-11-03T15:53:54.452Z,97821.48
2023-11-03T15:56:22.586Z,97826.35
2023-11-03T15:58:52.127Z,97829.50
2023-11-03T16:01:19.836Z,97830.94
2023-11-03T16:03:47.371Z,97833.68
2023-11-03T16:06:14.671Z,97838.81
2023-11-03T16:08:41.757Z,97841.64
2023-11-03T16:11:10.360Z,97842.59
2023-11-03T16:13:37.806Z,97844.54
2023-11-03T16:16:06.723Z,97850.88
2023-11-03T16:18:34.631Z,97858.00
2023-11-03T16:21:01.473Z,97855.83
2023-11-03T16:23:28.520Z,97858.57
2023-11-03T16:25:55.851Z,97856.14
2023-11-03T16:28:24.941Z,97863.18
2023-11-03T16:30:51.599Z,97863.34
2023-11-03T16:33:19.035Z,97866.11
2023-11-03T16:35:45.686Z,97866.97
2023-11-03T16:38:15.184Z,97866.66
2023-11-03T16:40:44.385Z,97865.80
2023-11-03T16:43:11.312Z,97867.89
2023-11-03T16:45:37.937Z,97871.17
2023-11-03T16:48:17.395Z,97874.95
2023-11-03T16:50:50.666Z,97871.20
2023-11-03T16:53:17.201Z,97872.38
2023-11-03T16:55:49.183Z,97870.59
2023-11-03T16:58:18.134Z,97875.34
2023-11-03T17:00:45.451Z,97880.40
2023-11-03T17:03:14.660Z,97883.09
2023-11-03T17:05:45.475Z,97884.06
2023-11-03T17:08:14.838Z,97884.88
2023-11-03T17:10:41.577Z,97889.29
2023-11-03T17:13:08.302Z,97889.77
2023-11-03T17:15:36.070Z,97890.56
2023-11-03T17:18:04.574Z,97889.31
2023-11-03T17:20:31.655Z,97893.02
2023-11-03T17:23:00.038Z,97895.67
2023-11-03T17:25:29.302Z,97896.08
2023-11-03T17:27:56.166Z,97890.38
2023-11-03T17:30:25.552Z,97892.39
2023-11-03T17:32:54.259Z,97887.94
2023-11-03T17:35:24.762Z,97886.69
2023-11-03T17:37:57.987Z,97892.06
2023-11-03T17:40:26.454Z,97890.60
2023-11-03T17:42:55.800Z,97896.09
2023-11-03T17:45:23.227Z,97899.08
2023-11-03T17:47:51.746Z,97897.11
2023-11-03T17:50:22.164Z,97901.83
2023-11-03T17:52:51.938Z,97900.20
2023-11-03T17:55:20.829Z,97903.70
2023-11-03T17:57:49.962Z,97902.70
2023-11-03T18:00:19.465Z,97907.01
2023-11-03T18:02:49.302Z,97905.86
2023-11-03T18:05:19.861Z,97907.80
2023-11-03T18:07:47.583Z,97908.42
2023-11-03T18:10:14.616Z,97914.39
2023-11-03T18:12:42.208Z,97913.62
2023-11-03T18:15:13.523Z,97916.90
2023-11-03T18:17:43.528Z,97917.63
2023-11-03T18:20:14.856Z,97918.41
2023-11-03T18:22:43.026Z,97914.20
2023-11-03T18:25:11.064Z,97915.61
2023-11-03T18:27:38.507Z,97910.87
2023-11-03T18:30:11.238Z,97912.83
2023-11-03T18:32:39.558Z,97916.48
2023-11-03T18:35:10.102Z,97914.84
2023-11-03T18:37:42.168Z,97915.77
2023-11-03T18:40:14.378Z,97915.00
2023-11-03T18:42:42.363Z,97911.66
2023-11-03T18:45:10.228Z,97910.90
2023-11-03T18:47:37.171Z,97911.34
2023-11-03T18:52:36.517Z,97911.34
2023-11-03T18:55:57.562Z,97910.73
2023-11-03T19:00:56.851Z,97920.60
2023-11-03T19:07:26.028Z,97927.54
2023-11-03T19:08:27.794Z,97924.91
2023-11-03T19:10:55.635Z,97928.05
2023-11-03T19:13:22.401Z,97927.41
2023-11-03T19:15:51.693Z,97929.49
2023-11-03T19:18:18.664Z,97931.58
2023-11-03T19:20:45.600Z,97933.36
2023-11-03T19:23:12.169Z,97934.60
2023-11-03T19:25:41.738Z,97935.27
2023-11-03T19:28:12.371Z,97938.17
2023-11-03T19:30:44.182Z,97941.81
2023-11-03T19:33:12.156Z,97947.52
2023-11-03T19:35:44.660Z,97951.34
2023-11-03T19:38:12.543Z,97955.81
2023-11-03T19:40:40.928Z,97950.70
2023-11-03T19:43:08.148Z,97957.02
2023-11-03T19:45:34.682Z,97951.56
2023-11-03T19:48:04.198Z,97953.79
2023-11-03T19:50:33.610Z,97954.14
2023-11-03T19:53:00.313Z,97959.82
2023-11-03T19:55:26.881Z,97958.99
2023-11-03T19:57:53.421Z,97958.02
2023-11-03T20:00:21.947Z,97961.63
2023-11-03T20:02:49.793Z,97964.55
2023-11-03T20:05:17.491Z,97965.43
2023-11-03T20:07:44.750Z,97962.89
2023-11-03T20:10:11.314Z,97965.27
2023-11-03T20:12:39.105Z,97965.98
2023-11-03T20:15:07.423Z,97968.55
2023-11-03T20:17:37.436Z,97971.64
2023-11-03T20:20:05.083Z,97966.36
2023-11-03T20:22:31.630Z,97969.57
2023-11-03T20:24:58.438Z,97970.08
2023-11-03T20:27:27.175Z,97972.30
2023-11-03T20:29:53.986Z,97970.09
2023-11-03T20:32:22.818Z,97972.29
2023-11-03T20:34:49.362Z,97969.89
2023-11-03T20:37:15.894Z,97967.34
2023-11-03T20:39:42.426Z,97972.30
2023-11-03T20:42:10.604Z,97974.52
2023-11-03T20:44:38.237Z,97971.31
2023-11-03T20:47:07.011Z,97972.54
2023-11-03T20:49:34.462Z,97971.86
2023-11-03T20:52:01.128Z,97973.73
2023-11-03T20:54:29.248Z,97975.94
2023-11-03T20:56:55.911Z,97978.52
2023-11-03T20:59:24.650Z,97978.86
2023-11-03T21:01:52.235Z,97976.80
2023-11-03T21:04:23.521Z,97977.13
2023-11-03T21:06:50.857Z,97978.86
2023-11-03T21:09:21.934Z,97980.91
2023-11-03T21:11:50.728Z,97980.23
2023-11-03T21:14:20.154Z,97979.92
2023-11-03T21:16:46.769Z,97978.78
2023-11-03T21:19:13.651Z,97978.96
2023-11-03T21:21:43.037Z,97979.32
2023-11-03T21:24:11.790Z,97975.08
2023-11-03T21:26:38.557Z,97977.66
2023-11-03T21:29:09.465Z,97976.45
2023-11-03T21:31:36.118Z,97973.39
2023-11-03T21:34:03.437Z,97974.92
2023-11-03T21:36:30.059Z,97976.65
2023-11-03T21:38:59.658Z,97978.23
2023-11-03T21:41:26.424Z,97975.86
2023-11-03T21:43:53.907Z,97974.02
2023-11-03T21:46:25.858Z,97970.61
2023-11-03T21:48:53.483Z,97975.24
2023-11-03T21:51:21.026Z,97971.34
2023-11-03T21:53:49.283Z,97968.61
2023-11-03T21:56:16.154Z,97966.60
2023-11-03T21:58:45.481Z,97969.20
2023-11-03T22:01:12.394Z,97971.98
2023-11-03T22:03:39.220Z,97977.48
2023-11-03T22:06:07.143Z,97981.60
2023-11-03T22:08:34.623Z,97986.11
2023-11-03T22:11:01.278Z,97981.86
2023-11-03T22:13:28.235Z,97976.10
2023-11-03T22:15:55.660Z,97979.55
2023-11-03T22:18:22.536Z,97979.38
2023-11-03T22:20:52.404Z,97977.81
2023-11-03T22:23:21.685Z,97981.02
2023-11-03T22:25:48.887Z,97984.23
2023-11-03T22:28:15.672Z,97983.00
2023-11-03T22:30:42.373Z,97985.70
2023-11-03T22:33:12.823Z,97983.46
2023-11-03T22:35:42.144Z,97988.91
2023-11-03T22:38:09.919Z,97992.02
2023-11-03T22:40:36.583Z,97994.82
2023-11-03T22:43:03.144Z,97995.94
2023-11-03T22:45:29.867Z,97994.83
2023-11-03T22:47:57.272Z,97998.00
2023-11-03T22:50:25.468Z,97995.35
2023-11-03T22:52:52.007Z,97998.98
2023-11-03T22:55:19.333Z,97999.73
2023-11-03T22:57:46.086Z,98005.77
2023-11-03T23:00:14.255Z,98005.52
2023-11-03T23:02:41.551Z,98008.31
2023-11-03T23:05:08.735Z,98012.46
2023-11-03T23:07:35.519Z,98009.94
2023-11-03T23:10:03.506Z,98004.33
2023-11-03T23:12:30.895Z,98003.85
2023-11-03T23:14:57.518Z,98005.43
2023-11-03T23:17:24.607Z,98005.50
2023-11-03T23:19:51.260Z,98009.62
2023-11-03T23:22:17.876Z,98012.94
2023-11-03T23:24:44.426Z,98013.85
2023-11-03T23:27:11.303Z,98016.62
2023-11-03T23:29:37.972Z,98012.05
2023-11-03T23:32:05.780Z,98014.45
2023-11-03T23:34:32.524Z,98011.75
2023-11-03T23:37:01.513Z,98014.36
2023-11-03T23:39:28.499Z,98012.52
2023-11-03T23:41:54.994Z,98014.25
2023-11-03T23:44:21.538Z,98017.84
2023-11-03T23:46:50.211Z,98014.71
2023-11-03T23:49:16.844Z,98016.50
2023-11-03T23:51:43.656Z,98018.80
2023-11-03T23:54:10.312Z,98018.84
2023-11-03T23:56:36.992Z,98016.02
2023-11-03T23:59:03.677Z,98016.09
